Time;durP1;ratioP1;P1;durP2;ratioP2;P2;SDS_P1;SDS_P2;PMS_P1;PMS_P2;Temp;Humidity;BMP_temperature;BMP_pressure;BME280_temperature;BME280_humidity;BME280_pressure;Samples;Min_cycle;Max_cycle;Signal;HPM_P1;HPM_P2
2022/09/04 00:00:42;;;;;;;3.70;0.98;;;14.80;99.90;;;13.67;72.85;101777.38;5020829;28;20037;-75
2022/09/04 00:03:40;;;;;;;3.75;0.77;;;14.70;99.90;;;13.68;72.66;101775.56;5024571;28;20026;-75
2022/09/04 00:06:18;;;;;;;1.33;0.80;;;14.70;99.90;;;13.66;72.63;101780.06;5023127;28;20060;-75
2022/09/04 00:09:02;;;;;;;0.95;0.70;;;14.70;99.90;;;13.62;72.84;101778.47;5005197;28;20064;-75
2022/09/04 00:11:51;;;;;;;6.63;0.80;;;14.70;99.90;;;13.60;72.56;101773.25;5017794;28;20033;-75
2022/09/04 00:14:24;;;;;;;3.00;0.88;;;14.60;99.90;;;13.47;73.05;101766.75;5004806;28;20037;-75
2022/09/04 00:17:00;;;;;;;1.85;0.85;;;14.50;99.90;;;13.43;73.43;101779.25;5017721;28;20030;-75
2022/09/04 00:19:42;;;;;;;1.80;0.90;;;14.40;99.90;;;13.34;73.83;101772.53;5006297;28;20048;-75
2022/09/04 00:22:56;;;;;;;3.20;0.82;;;14.40;99.90;;;13.27;74.01;101773.69;5005171;28;20037;-75
2022/09/04 00:25:21;;;;;;;4.80;0.98;;;14.30;99.90;;;13.24;74.38;101768.56;5018431;28;20080;-76
2022/09/04 00:27:57;;;;;;;5.00;0.80;;;14.40;99.90;;;13.25;73.86;101767.63;5020488;28;20037;-75
2022/09/04 00:30:23;;;;;;;1.15;0.70;;;14.30;99.90;;;13.12;74.46;101771.69;5018656;28;20069;-74
2022/09/04 00:33:12;;;;;;;2.45;0.90;;;14.30;99.90;;;13.09;74.64;101774.47;5019537;28;20054;-75
2022/09/04 00:36:02;;;;;;;2.53;1.10;;;14.20;99.90;;;13.14;74.27;101781.28;5019857;28;20033;-75
2022/09/04 00:39:01;;;;;;;3.20;0.88;;;14.20;99.90;;;13.05;75.07;101786.94;5020329;28;20053;-75
2022/09/04 00:42:04;;;;;;;1.85;1.02;;;14.20;99.90;;;13.02;74.70;101786.19;5005209;28;20064;-75
2022/09/04 00:45:26;;;;;;;2.15;0.80;;;14.10;99.90;;;13.01;75.22;101787.13;5019647;28;20038;-75
2022/09/04 00:48:38;;;;;;;3.30;1.02;;;14.10;99.90;;;12.93;74.62;101790.91;5019331;28;20098;-76
2022/09/04 00:51:29;;;;;;;3.55;1.40;;;14.10;99.90;;;12.86;75.05;101784.16;4988053;28;20041;-75
2022/09/04 00:54:15;;;;;;;3.08;0.90;;;14.00;99.90;;;12.84;75.33;101785.16;5018302;28;20109;-75
2022/09/04 00:57:26;;;;;;;3.27;1.33;;;13.90;99.90;;;12.68;75.50;101783.09;4999806;28;20034;-74
2022/09/04 01:00:01;;;;;;;1.95;0.90;;;13.90;99.90;;;12.77;75.70;101784.53;5020961;28;20038;-75
2022/09/04 01:03:04;;;;;;;1.65;1.00;;;13.80;99.90;;;12.65;75.83;101785.00;5003049;28;20073;-74
2022/09/04 01:06:00;;;;;;;5.10;0.80;;;13.80;99.90;;;12.65;75.57;101783.19;5022314;28;20033;-75
2022/09/04 01:09:23;;;;;;;2.10;1.00;;;13.80;99.90;;;12.62;74.68;101780.69;5019771;28;20022;-75
2022/09/04 01:11:52;;;;;;;1.52;0.80;;;13.80;99.90;;;12.68;75.20;101785.75;5015463;28;20029;-74
2022/09/04 01:14:43;;;;;;;2.55;0.90;;;13.80;99.90;;;12.70;74.31;101783.06;5021125;28;20041;-74
2022/09/04 01:17:21;;;;;;;4.95;1.02;;;13.80;99.90;;;12.59;74.61;101775.53;5017518;28;20133;-74
2022/09/04 01:20:30;;;;;;;2.47;0.82;;;13.70;99.90;;;12.56;74.61;101782.72;5023085;28;20029;-75
2022/09/04 01:23:39;;;;;;;3.80;0.90;;;13.70;99.90;;;12.55;74.35;101770.41;5017314;28;20037;-75
2022/09/04 01:26:39;;;;;;;1.30;0.80;;;13.70;99.90;;;12.52;74.53;101779.31;5021316;28;20018;-75
2022/09/04 01:29:39;;;;;;;2.55;0.93;;;13.70;99.90;;;12.46;74.71;101780.44;5021877;28;20548;-75
2022/09/04 01:32:14;;;;;;;1.67;0.90;;;13.60;99.90;;;12.36;74.96;101776.41;5017843;28;20038;-75
2022/09/04 01:35:30;;;;;;;4.45;0.70;;;13.50;99.90;;;12.26;75.07;101785.56;5017338;28;20038;-75
2022/09/04 01:38:37;;;;;;;1.92;0.77;;;13.50;99.90;;;12.29;74.72;101788.13;5019893;28;20675;-75
2022/09/04 01:41:37;;;;;;;1.40;0.77;;;13.40;99.90;;;12.25;74.21;101786.50;5023521;28;20030;-75
2022/09/04 01:44:07;;;;;;;1.60;0.65;;;13.40;99.90;;;12.29;74.17;101777.56;5020265;28;20017;-75
2022/09/04 01:46:44;;;;;;;4.70;0.80;;;13.40;99.90;;;12.26;74.53;101782.94;5020509;28;20078;-74
2022/09/04 01:49:52;;;;;;;3.38;0.65;;;13.40;99.90;;;12.19;73.54;101781.44;5015033;28;20030;-75
2022/09/04 01:52:41;;;;;;;2.65;1.00;;;13.40;99.90;;;12.15;73.59;101779.81;5019516;28;20040;-76
2022/09/04 01:55:33;;;;;;;2.38;1.00;;;13.30;99.90;;;12.14;73.41;101781.63;5018440;28;20030;-75
2022/09/04 01:58:46;;;;;;;1.13;0.68;;;13.30;99.90;;;12.13;73.23;101779.88;5016683;28;20041;-75
2022/09/04 02:01:34;;;;;;;5.15;0.95;;;13.30;99.90;;;12.04;73.73;101782.84;5019328;28;20080;-75
2022/09/04 02:04:30;;;;;;;3.05;0.90;;;13.20;99.90;;;12.04;73.63;101780.22;5017978;28;20067;-76
2022/09/04 02:07:38;;;;;;;2.90;0.82;;;13.20;99.90;;;11.96;73.68;101783.13;5015874;28;20048;-75
2022/09/04 02:10:34;;;;;;;4.95;0.85;;;13.10;99.90;;;11.92;74.40;101789.41;5010398;28;20041;-76
2022/09/04 02:13:21;;;;;;;1.95;0.80;;;13.10;99.90;;;11.96;74.04;101792.81;5017403;28;20069;-74
2022/09/04 02:16:09;;;;;;;2.95;1.50;;;13.10;99.90;;;11.89;73.60;101781.63;5018515;28;20048;-75
2022/09/04 02:19:27;;;;;;;2.10;0.80;;;13.00;99.90;;;11.84;74.65;101796.72;5015117;28;20479;-75
2022/09/04 02:22:34;;;;;;;6.30;1.02;;;12.90;99.90;;;11.80;74.87;101787.19;5017763;28;20724;-75
2022/09/04 02:25:04;;;;;;;1.98;0.80;;;12.90;99.90;;;11.75;74.92;101787.34;5016492;28;20041;-75
2022/09/04 02:28:12;;;;;;;3.13;0.90;;;12.90;99.90;;;11.77;74.15;101787.28;5021600;28;20164;-75
2022/09/04 02:31:15;;;;;;;1.30;0.77;;;12.80;99.90;;;11.69;75.30;101791.06;5019521;28;20497;-75
2022/09/04 02:34:05;;;;;;;2.42;1.00;;;12.80;99.90;;;11.62;75.01;101792.19;5014473;28;20045;-75
2022/09/04 02:37:02;;;;;;;4.32;0.90;;;12.80;99.90;;;11.52;76.10;101790.78;5017241;28;20176;-75
2022/09/04 02:39:52;;;;;;;3.80;0.88;;;12.80;99.90;;;11.55;75.83;101795.94;5018480;28;20433;-75
2022/09/04 02:43:06;;;;;;;1.25;0.90;;;12.70;99.90;;;11.44;76.19;101792.78;5015325;28;20037;-75
2022/09/04 02:45:47;;;;;;;1.90;0.93;;;12.70;99.90;;;11.45;76.29;101794.53;4997682;28;20048;-75
2022/09/04 02:48:43;;;;;;;5.78;1.10;;;12.70;99.90;;;11.45;76.92;101791.91;4999600;28;20084;-75
2022/09/04 02:51:51;;;;;;;4.13;0.80;;;12.70;99.90;;;11.49;76.29;101793.53;5017323;28;20041;-75
2022/09/04 02:54:49;;;;;;;2.55;1.10;;;12.70;99.90;;;11.44;77.02;101792.78;5013728;28;21307;-75
2022/09/04 02:57:46;;;;;;;1.70;0.98;;;12.60;99.90;;;11.43;76.95;101796.38;5012448;28;20046;-74
2022/09/04 03:00:37;;;;;;;1.60;0.90;;;12.50;99.90;;;11.40;77.55;101801.72;5019250;28;20484;-75
2022/09/04 03:03:17;;;;;;;4.85;0.95;;;12.60;99.90;;;11.38;77.11;101804.44;5019202;28;20033;-75
2022/09/04 03:06:04;;;;;;;3.35;1.00;;;12.50;99.90;;;11.34;77.62;101801.91;5017646;28;20072;-74
2022/09/04 03:08:52;;;;;;;2.30;0.98;;;12.50;99.90;;;11.34;77.66;101802.81;5016705;28;20025;-74
2022/09/04 03:11:52;;;;;;;5.03;0.90;;;12.50;99.90;;;11.36;78.54;101805.38;5014755;28;20077;-74
2022/09/04 03:14:37;;;;;;;2.47;1.10;;;12.50;99.90;;;11.34;78.41;101801.91;5017356;28;20068;-74
2022/09/04 03:17:57;;;;;;;1.63;0.80;;;12.50;99.90;;;11.33;78.73;101805.47;5015524;28;20041;-74
2022/09/04 03:20:32;;;;;;;3.10;0.75;;;12.50;99.90;;;11.34;79.26;101804.56;4997036;28;20406;-74
2022/09/04 03:23:10;;;;;;;2.13;0.77;;;12.50;99.90;;;11.38;79.02;101808.81;5018556;28;20087;-75
2022/09/04 03:26:00;;;;;;;1.80;0.75;;;12.50;99.90;;;11.33;80.64;101805.47;5016646;28;20498;-75
2022/09/04 03:28:50;;;;;;;1.60;0.75;;;12.50;99.90;;;11.38;80.09;101803.53;5018466;28;20034;-75
2022/09/04 03:31:31;;;;;;;4.10;1.10;;;12.60;99.90;;;11.43;80.15;101804.28;5017447;28;20033;-75
2022/09/04 03:34:14;;;;;;;2.72;0.90;;;12.60;99.90;;;11.48;80.12;101808.47;5016311;28;20037;-74
2022/09/04 03:37:49;;;;;;;3.92;1.08;;;12.60;99.90;;;11.52;80.08;101805.75;5019553;23;20528;-77
2022/09/04 03:40:23;;;;;;;1.85;0.98;;;12.70;99.90;;;11.54;80.34;101802.13;4996174;28;20113;-79
2022/09/04 03:43:22;;;;;;;8.55;0.82;;;12.70;99.90;;;11.65;80.47;101797.34;5026268;28;20030;-79
2022/09/04 03:45:58;;;;;;;2.35;0.95;;;12.80;99.90;;;11.77;79.58;101804.00;5028946;28;20428;-78
2022/09/04 03:48:30;;;;;;;;;;;12.80;99.90;;;11.83;79.04;101800.28;5044547;28;20199;-78
2022/09/04 03:51:27;;;;;;;1.60;0.65;;;13.00;99.90;;;11.90;78.20;101802.69;5028891;28;20384;-77
2022/09/04 03:54:17;;;;;;;3.40;0.93;;;13.00;99.90;;;11.96;78.41;101793.66;5029641;28;20588;-79
2022/09/04 03:57:24;;;;;;;1.38;0.80;;;13.10;99.90;;;11.97;77.61;101802.47;5026941;28;20037;-78
2022/09/04 04:00:19;;;;;;;2.38;0.80;;;13.10;99.90;;;12.00;77.87;101797.06;5042869;28;20026;-78
2022/09/04 04:03:20;;;;;;;3.58;1.00;;;13.10;99.90;;;12.01;77.35;101812.00;5044003;28;20417;-78
2022/09/04 04:06:28;;;;;;;4.78;0.65;;;13.10;99.90;;;11.96;77.94;101813.94;5026348;28;20060;-77
2022/09/04 04:09:10;;;;;;;;;;;13.10;99.90;;;11.87;77.79;101818.56;5029108;28;20038;-78
2022/09/04 04:11:56;;;;;;;2.03;0.73;;;13.00;99.90;;;11.87;77.94;101818.56;5040602;28;20281;-78
2022/09/04 04:14:36;;;;;;;7.30;0.80;;;13.00;99.90;;;11.87;78.37;101823.84;5028876;28;20057;-78
2022/09/04 04:17:46;;;;;;;2.97;0.90;;;13.00;99.90;;;11.93;77.89;101827.25;5028596;28;20124;-78
2022/09/04 04:21:11;;;;;;;2.53;0.90;;;13.00;99.90;;;11.93;78.04;101833.38;5040567;28;20037;-78
2022/09/04 04:24:27;;;;;;;2.67;0.95;;;13.10;99.90;;;11.97;77.87;101836.78;4987347;28;20410;-78
2022/09/04 04:27:39;;;;;;;2.58;0.95;;;13.00;99.90;;;11.86;78.37;101837.13;4999838;28;20022;-78
2022/09/04 04:30:11;;;;;;;2.08;0.90;;;13.00;99.90;;;11.91;78.69;101840.50;5035510;28;20108;-78
2022/09/04 04:33:11;;;;;;;2.88;0.90;;;13.00;99.90;;;11.90;77.80;101844.91;5028158;28;20433;-77
2022/09/04 04:36:01;;;;;;;1.70;0.70;;;12.90;99.90;;;11.80;78.50;101839.97;5029757;28;20033;-78
2022/09/04 04:38:46;;;;;;;3.35;1.05;;;12.80;99.90;;;11.71;79.08;101849.06;5046915;28;20041;-78
2022/09/04 04:42:04;;;;;;;1.65;0.90;;;12.80;99.90;;;11.72;78.31;101850.78;5015926;28;20021;-78
2022/09/04 04:48:47;;;;;;;2.25;0.90;;;12.60;99.90;;;11.58;78.91;101856.50;5033086;28;20092;-78
2022/09/04 04:52:00;;;;;;;3.47;0.80;;;12.60;99.90;;;11.54;79.16;101854.03;5032717;28;20037;-77
2022/09/04 04:55:05;;;;;;;4.63;1.00;;;12.50;99.90;;;11.52;79.26;101864.63;5032299;28;20041;-77
2022/09/04 04:57:40;;;;;;;3.20;1.00;;;12.50;99.90;;;11.57;79.27;101869.75;5031888;28;20037;-77
2022/09/04 05:00:18;;;;;;;4.20;1.00;;;12.50;99.90;;;11.65;79.11;101876.50;5030323;28;20107;-78
2022/09/04 05:03:17;;;;;;;7.18;1.02;;;12.60;99.90;;;11.72;78.48;101871.03;5032260;28;20052;-78
2022/09/04 05:05:54;;;;;;;2.03;1.00;;;12.70;99.90;;;11.80;78.40;101888.31;5045353;28;20037;-78
2022/09/04 05:08:53;;;;;;;2.55;0.80;;;12.70;99.90;;;11.92;78.70;101891.50;5030167;28;20025;-77
2022/09/04 05:11:32;;;;;;;6.43;1.50;;;12.80;99.90;;;11.97;78.79;101893.06;5030108;28;20120;-77
2022/09/04 05:14:41;;;;;;;4.32;1.20;;;12.90;99.90;;;12.13;78.35;101903.97;5029190;28;20141;-77
2022/09/04 05:17:31;;;;;;;2.90;1.00;;;13.00;99.90;;;12.29;78.12;101905.16;5038247;28;20079;-77
2022/09/04 05:20:39;;;;;;;3.35;1.08;;;13.30;99.90;;;13.99;74.26;101918.06;5035924;28;20037;-77
2022/09/04 05:23:14;;;;;;;3.22;1.10;;;14.30;99.90;;;17.68;63.15;101923.78;5031096;28;20026;-79
2022/09/04 05:26:09;;;;;;;3.35;1.10;;;15.90;99.90;;;20.72;54.18;101916.94;5030844;28;20030;-78
2022/09/04 05:28:45;;;;;;;1.92;0.77;;;17.50;99.90;;;21.23;51.22;101907.94;5045562;28;20040;-78
2022/09/04 05:31:49;;;;;;;4.72;0.90;;;18.30;99.90;;;22.01;49.57;101917.34;5031446;28;20040;-77
2022/09/04 05:34:53;;;;;;;1.65;0.90;;;19.60;99.90;;;25.13;44.88;101932.84;5031229;28;20049;-78
2022/09/04 05:37:48;;;;;;;3.65;0.90;;;20.70;99.50;;;24.42;43.93;101913.09;5015549;28;20053;-78
2022/09/04 05:40:28;;;;;;;5.10;1.35;;;21.20;99.60;;;23.21;46.13;101911.53;5030320;28;20034;-79
2022/09/04 05:43:06;;;;;;;1.95;0.90;;;20.90;98.60;;;20.59;49.88;101903.56;5028987;28;20030;-78
2022/09/04 05:46:03;;;;;;;1.60;0.85;;;20.20;99.90;;;18.78;53.58;101899.50;5014293;28;20048;-79
2022/09/04 05:48:52;;;;;;;1.77;0.97;;;19.10;99.90;;;17.77;57.81;101917.91;5030742;28;20048;-77
2022/09/04 05:51:48;;;;;;;1.08;0.70;;;18.40;99.90;;;17.26;59.15;101909.31;5029247;28;20512;-77
2022/09/04 05:54:32;;;;;;;4.43;0.90;;;18.40;99.90;;;22.43;50.08;101941.91;5031307;28;20057;-78
2022/09/04 05:57:13;;;;;;;2.38;0.90;;;19.20;99.90;;;21.81;48.67;101927.75;5046263;28;20494;-79
2022/09/04 05:59:50;;;;;;;1.63;0.80;;;19.40;99.90;;;19.92;52.27;101929.56;5030891;28;20017;-78
2022/09/04 06:03:04;;;;;;;7.53;1.05;;;19.10;99.90;;;18.90;54.21;101921.88;5031420;28;20398;-78
2022/09/04 06:06:11;;;;;;;1.73;0.77;;;19.00;99.90;;;20.41;52.47;101942.25;5026495;28;20098;-78
2022/09/04 06:09:26;;;;;;;7.70;0.88;;;19.10;99.90;;;19.66;53.49;101934.81;5031246;28;20029;-78
2022/09/04 06:12:12;;;;;;;2.97;1.02;;;19.10;99.90;;;20.11;53.30;101948.78;5046150;28;20017;-78
2022/09/04 06:15:13;;;;;;;4.72;1.00;;;19.30;99.90;;;20.45;52.54;101955.34;5029703;28;20098;-78
2022/09/04 06:18:02;;;;;;;2.10;1.00;;;19.40;99.90;;;19.90;53.63;101958.22;5043645;28;20041;-77
2022/09/04 06:20:47;;;;;;;6.63;0.90;;;18.90;99.90;;;17.94;58.08;101940.09;5039552;28;20025;-78
2022/09/04 06:23:40;;;;;;;3.92;1.10;;;18.40;99.90;;;16.88;60.99;101949.50;5039854;28;20075;-79
2022/09/04 06:26:20;;;;;;;1.70;0.85;;;18.10;99.90;;;17.65;61.49;101960.41;5005456;28;20132;-78
2022/09/04 06:29:05;;;;;;;3.03;1.00;;;18.20;99.90;;;19.01;58.29;101962.13;5029993;28;20076;-77
2022/09/04 06:32:03;;;;;;;4.43;1.00;;;18.60;99.90;;;20.56;54.26;101961.75;5030317;28;20029;-78
2022/09/04 06:35:08;;;;;;;2.25;1.00;;;19.30;99.90;;;21.23;52.08;101958.81;5025626;28;20033;-78
2022/09/04 06:38:05;;;;;;;6.65;0.80;;;19.70;99.90;;;20.93;52.65;101976.16;5031047;28;20094;-79
2022/09/04 06:40:42;;;;;;;5.90;0.70;;;20.10;99.90;;;21.06;52.55;101966.28;5028997;28;20076;-78
2022/09/04 06:43:39;;;;;;;2.53;0.85;;;20.10;99.90;;;19.94;54.63;101962.41;5025585;28;20034;-78
2022/09/04 06:46:32;;;;;;;2.97;1.07;;;20.00;99.90;;;20.76;53.59;101980.00;5042476;28;20030;-79
2022/09/04 06:49:20;;;;;;;4.20;0.90;;;20.50;99.90;;;22.62;50.08;101985.13;5046306;28;20457;-78
2022/09/04 06:52:11;;;;;;;2.05;0.80;;;21.40;99.90;;;24.70;46.58;102003.13;5023641;28;20593;-78
2022/09/04 06:55:04;;;;;;;3.17;0.80;;;22.60;98.50;;;25.88;43.78;102005.25;5026838;28;20045;-78
2022/09/04 06:58:07;;;;;;;3.28;0.82;;;24.20;96.60;;;27.03;41.05;101999.84;5019845;28;20030;-78
2022/09/04 07:01:04;;;;;;;2.97;0.90;;;25.40;94.80;;;27.96;38.58;102013.31;5028824;28;20031;-78
2022/09/04 07:03:36;;;;;;;3.13;1.02;;;26.30;92.70;;;28.69;38.81;102018.50;5028704;28;20140;-78
2022/09/04 07:06:20;;;;;;;2.90;1.00;;;27.30;91.30;;;29.15;38.28;102013.69;5029059;28;20036;-78
2022/09/04 07:09:01;;;;;;;1.77;1.00;;;28.20;90.40;;;29.70;36.31;102020.53;5029338;28;20521;-80
2022/09/04 07:11:37;;;;;;;2.88;0.95;;;27.50;88.30;;;27.41;39.47;101998.00;5029970;28;20515;-78
2022/09/04 07:14:34;;;;;;;3.53;1.00;;;27.30;88.50;;;27.65;39.55;102013.66;5029480;28;20029;-79
2022/09/04 07:17:17;;;;;;;4.13;0.90;;;27.80;89.30;;;28.74;37.89;102027.00;5026864;28;20172;-79
2022/09/04 07:20:20;;;;;;;4.75;1.13;;;28.10;86.80;;;27.75;37.56;102016.28;5030492;28;20518;-78
2022/09/04 07:23:11;;;;;;;5.35;1.10;;;28.10;87.10;;;28.05;37.78;102019.66;5027373;28;20095;-79
2022/09/04 07:26:02;;;;;;;2.88;1.27;;;27.70;89.60;;;27.57;40.10;102027.94;5030102;28;20028;-79
2022/09/04 07:28:41;;;;;;;10.50;0.98;;;27.80;87.40;;;27.68;39.15;102028.72;5013198;28;20508;-78
2022/09/04 07:31:43;;;;;;;2.25;0.80;;;28.40;88.60;;;28.91;38.36;102033.38;5028406;28;20068;-79
2022/09/04 07:34:33;;;;;;;3.65;1.05;;;28.90;86.00;;;28.70;38.06;102050.00;5014275;28;20049;-78
2022/09/04 07:37:26;;;;;;;2.47;1.00;;;29.40;84.00;;;29.41;36.15;102054.31;5042288;28;20038;-78
2022/09/04 07:40:11;;;;;;;1.90;1.02;;;29.50;85.40;;;29.15;37.53;102054.38;5014367;28;20037;-79
2022/09/04 07:43:04;;;;;;;6.22;1.10;;;29.70;83.30;;;28.14;37.03;102049.38;5027690;28;20032;-78
2022/09/04 07:45:49;;;;;;;2.60;1.00;;;28.70;82.30;;;27.55;39.65;102048.03;5027529;28;20486;-78
2022/09/04 07:48:42;;;;;;;3.10;1.17;;;28.80;83.00;;;28.11;38.33;102051.53;5013722;28;20053;-79
2022/09/04 07:51:39;;;;;;;1.90;0.90;;;29.00;84.90;;;28.26;37.91;102054.56;5012406;28;20029;-78
2022/09/04 07:54:32;;;;;;;;;;;29.00;85.60;;;27.62;37.83;102057.22;5028403;28;20116;-79
2022/09/04 07:57:13;;;;;;;2.58;0.88;;;29.00;81.50;;;27.96;38.54;102065.59;5040655;28;19943;-78
2022/09/04 08:00:12;;;;;;;2.35;0.93;;;29.00;83.20;;;28.59;37.74;102070.06;5010121;28;20382;-78
2022/09/04 08:03:06;;;;;;;2.92;1.17;;;29.70;84.30;;;29.37;36.90;102081.94;5027525;28;20060;-78
2022/09/04 08:05:48;;;;;;;3.28;1.10;;;29.50;80.50;;;28.63;37.53;102071.47;5022415;28;20025;-79
2022/09/04 08:08:48;;;;;;;7.85;0.95;;;29.60;81.70;;;28.69;37.27;102070.00;5027544;28;20064;-78
2022/09/04 08:11:18;;;;;;;3.33;1.00;;;29.90;80.20;;;28.91;36.91;102076.75;5033545;28;20025;-79
2022/09/04 08:14:08;;;;;;;3.75;1.02;;;29.50;80.60;;;28.47;37.84;102078.56;5031946;28;20046;-78
2022/09/04 08:17:32;;;;;;;4.97;1.02;;;29.80;81.80;;;28.58;36.36;102081.09;5030929;28;20042;-78
2022/09/04 08:20:12;;;;;;;10.27;1.30;;;29.50;80.80;;;28.21;37.98;102076.69;5029296;28;20102;-77
2022/09/04 08:23:03;;;;;;;8.10;1.05;;;29.00;81.70;;;27.50;39.65;102072.81;5031549;28;20026;-78
2022/09/04 08:25:55;;;;;;;4.78;1.20;;;29.00;83.40;;;28.40;38.35;102079.22;5031424;28;20064;-78
2022/09/04 08:28:55;;;;;;;2.33;1.08;;;28.80;80.60;;;27.32;38.70;102067.38;5030853;28;20057;-77
2022/09/04 08:31:41;;;;;;;2.28;1.00;;;28.10;81.40;;;26.59;40.02;102059.00;5029585;28;20514;-79
2022/09/04 08:34:37;;;;;;;2.15;0.80;;;28.10;84.10;;;27.04;39.83;102066.44;5014345;28;20022;-78
2022/09/04 08:37:24;;;;;;;4.75;1.13;;;27.90;86.30;;;26.92;39.85;102062.22;5032207;28;20490;-78
2022/09/04 08:39:53;;;;;;;2.22;1.20;;;27.90;83.90;;;26.93;39.58;102055.78;5031502;28;20037;-78
2022/09/04 08:42:30;;;;;;;6.55;1.50;;;27.30;83.00;;;25.71;41.05;102058.06;5031441;28;20026;-79
2022/09/04 08:45:38;;;;;;;1.77;0.98;;;27.20;84.90;;;25.40;41.87;102055.41;5032056;28;20502;-78
2022/09/04 08:48:19;;;;;;;;;;;26.70;86.20;;;24.99;42.15;102054.50;5032871;28;20503;-78
2022/09/04 08:51:56;;;;;;;5.53;1.50;;;26.20;88.40;;;24.74;42.30;102047.66;5032522;28;19923;-78
2022/09/04 08:54:36;;;;;;;0.85;0.80;;;26.10;88.50;;;25.37;43.00;102050.28;5001273;28;20191;-79
2022/09/04 08:57:02;;;;;;;6.85;1.20;;;25.80;87.30;;;24.91;43.18;102041.66;5031314;28;20116;-78
2022/09/04 08:59:51;;;;;;;2.75;1.00;;;25.50;87.60;;;24.10;43.78;102035.97;5032024;28;20113;-78
2022/09/04 09:03:13;;;;;;;6.60;1.13;;;25.00;89.00;;;24.40;44.67;102036.19;5030230;28;20037;-78
2022/09/04 09:06:19;;;;;;;5.88;0.98;;;24.60;90.70;;;23.85;45.75;102045.22;5031095;28;20381;-77
2022/09/04 09:09:00;;;;;;;4.57;1.30;;;23.90;89.90;;;22.66;46.49;102029.53;5031623;28;20064;-78
2022/09/04 09:12:03;;;;;;;4.82;1.40;;;23.80;91.50;;;22.39;47.04;102037.03;5031511;28;20515;-78
2022/09/04 09:15:05;;;;;;;6.28;1.50;;;23.50;92.40;;;22.59;48.35;102044.41;5030661;28;20026;-78
2022/09/04 09:18:16;;;;;;;2.05;0.90;;;23.40;92.20;;;22.28;47.95;102041.38;5031315;28;20037;-79
2022/09/04 09:21:29;;;;;;;6.18;1.00;;;23.20;92.20;;;22.21;48.09;102044.59;5029031;28;20029;-78
2022/09/04 09:24:14;;;;;;;1.20;1.02;;;23.10;92.70;;;22.21;49.42;102039.25;5028695;28;20033;-78
2022/09/04 09:27:29;;;;;;;5.30;1.48;;;23.20;92.70;;;22.57;48.41;102046.38;5030071;28;20059;-77
2022/09/04 09:30:23;;;;;;;5.85;1.20;;;23.30;92.80;;;22.52;49.35;102037.78;5031554;28;20021;-78
2022/09/04 09:33:33;;;;;;;4.53;1.42;;;23.00;92.50;;;21.92;49.76;102031.53;5029129;28;20025;-78
2022/09/04 09:36:43;;;;;;;1.70;1.10;;;23.00;92.80;;;21.77;50.31;102030.88;5029114;28;20056;-78
2022/09/04 09:39:59;;;;;;;4.35;1.20;;;22.90;93.90;;;21.87;49.65;102036.38;5030298;28;20521;-78
2022/09/04 09:42:47;;;;;;;3.58;1.05;;;22.70;93.60;;;21.74;50.51;102030.22;5021036;28;20801;-78
2022/09/04 09:45:56;;;;;;;3.97;0.88;;;22.90;94.30;;;22.46;50.04;102044.50;5030348;28;20029;-78
2022/09/04 09:49:18;;;;;;;2.45;1.20;;;23.20;93.40;;;22.60;48.74;102035.38;5031594;28;20047;-78
2022/09/04 09:52:23;;;;;;;6.43;1.38;;;23.40;93.70;;;22.84;49.73;102037.97;5030743;28;20037;-78
2022/09/04 09:55:39;;;;;;;5.22;1.08;;;23.60;92.90;;;23.05;48.28;102040.00;5030500;28;20067;-79
2022/09/04 09:58:46;;;;;;;5.38;1.13;;;23.60;93.10;;;22.96;49.51;102036.19;5030334;28;20049;-77
2022/09/04 10:01:50;;;;;;;5.63;1.00;;;23.80;93.50;;;22.49;49.12;102028.16;5030332;28;20037;-78
2022/09/04 10:04:46;;;;;;;5.63;1.13;;;23.40;93.00;;;22.43;49.63;102023.25;5030487;28;20025;-78
2022/09/04 10:07:56;;;;;;;3.53;1.08;;;23.30;94.00;;;22.40;49.99;102033.38;5051156;22;20052;-78
2022/09/04 10:11:05;;;;;;;3.78;1.20;;;23.30;93.30;;;22.53;49.77;102024.25;5020949;28;20045;-78
2022/09/04 10:14:31;;;;;;;7.72;1.10;;;23.30;93.30;;;22.26;50.66;102024.53;5022026;28;20034;-78
2022/09/04 10:17:36;;;;;;;6.43;1.08;;;23.10;93.60;;;22.25;49.96;102030.88;4991923;28;20031;-78
2022/09/04 10:21:00;;;;;;;2.05;1.10;;;23.20;92.90;;;22.31;49.10;102025.06;4974830;28;20518;-78
2022/09/04 10:23:51;;;;;;;4.90;1.20;;;23.30;93.20;;;22.61;48.39;102026.34;5020677;28;20032;-78
2022/09/04 10:27:14;;;;;;;4.28;1.08;;;23.40;93.60;;;22.87;48.09;102027.03;5021986;28;20034;-78
2022/09/04 10:30:06;;;;;;;5.25;1.00;;;23.60;92.80;;;22.92;47.88;102034.72;5021524;28;20127;-78
2022/09/04 10:33:13;;;;;;;3.70;1.10;;;23.50;92.30;;;22.75;49.74;102027.97;5019665;28;20033;-78
2022/09/04 10:36:10;;;;;;;5.70;1.40;;;23.50;93.00;;;22.55;48.94;102020.59;5018610;28;20053;-78
2022/09/04 10:42:30;;;;;;;2.30;1.10;;;23.60;93.50;;;22.97;50.61;102023.59;5022464;28;20583;-77
2022/09/04 10:45:14;;;;;;;5.30;1.25;;;23.80;93.70;;;23.32;49.15;102031.56;5021549;28;20104;-78
2022/09/04 10:48:33;;;;;;;3.92;1.05;;;23.70;92.90;;;22.83;48.30;102013.94;5010683;23;20047;-79
2022/09/04 10:51:37;;;;;;;5.13;1.10;;;23.90;92.70;;;23.27;47.43;102023.03;4989856;28;20076;-77
2022/09/04 10:54:24;;;;;;;4.47;1.20;;;23.80;92.20;;;23.23;47.70;102022.41;4994101;28;20491;-78
2022/09/04 10:57:37;;;;;;;5.28;1.30;;;23.90;92.20;;;23.10;46.97;102016.31;4999599;28;20046;-78
2022/09/04 11:00:48;;;;;;;3.50;1.17;;;24.00;92.80;;;22.98;48.28;102019.94;4999513;28;20069;-78
2022/09/04 11:03:49;;;;;;;6.25;1.08;;;23.60;92.20;;;22.48;48.73;102004.97;4990563;28;20026;-78
2022/09/04 11:07:06;;;;;;;6.35;1.00;;;23.50;93.80;;;22.71;50.05;102010.38;4993208;28;20034;-78
2022/09/04 11:09:53;;;;;;;7.32;1.20;;;23.50;94.20;;;22.64;50.81;102010.00;4989814;28;20049;-77
2022/09/04 11:13:21;;;;;;;4.05;0.90;;;23.20;93.90;;;22.47;49.99;102007.78;4988008;28;20454;-78
2022/09/04 11:16:31;;;;;;;3.03;1.00;;;23.30;92.70;;;22.43;48.28;102001.78;5007220;28;20042;-78
2022/09/04 11:19:54;;;;;;;5.45;1.20;;;23.10;93.40;;;22.05;49.79;102002.84;4961765;28;20050;-78
2022/09/04 11:22:52;;;;;;;3.70;1.08;;;23.10;94.00;;;22.40;49.36;102006.53;4989112;28;20031;-78
2022/09/04 11:25:43;;;;;;;3.85;1.00;;;23.20;92.00;;;22.52;48.20;102005.59;4988178;28;20026;-77
2022/09/04 11:28:33;;;;;;;5.20;1.13;;;23.30;92.60;;;22.44;48.03;101999.94;4985830;28;20089;-78
2022/09/04 11:31:45;;;;;;;8.52;1.13;;;23.20;93.20;;;22.43;48.57;101995.56;4989776;28;20034;-78
2022/09/04 11:34:48;;;;;;;2.40;0.98;;;23.20;93.00;;;22.42;48.79;101997.41;4989934;28;20030;-78
2022/09/04 11:37:35;;;;;;;5.55;1.23;;;23.10;93.60;;;22.44;49.25;102002.63;4990447;28;20468;-78
2022/09/04 11:40:19;;;;;;;;;;;23.10;94.00;;;22.32;50.76;101994.56;4993959;28;20449;-78
2022/09/04 11:43:25;;;;;;;3.40;1.20;;;23.00;94.50;;;22.13;50.52;101996.88;4989507;28;20004;-78
2022/09/04 11:46:31;;;;;;;6.53;1.30;;;23.00;94.10;;;22.25;50.21;102005.88;4993214;28;20033;-78
2022/09/04 11:49:37;;;;;;;2.78;1.20;;;23.00;93.60;;;22.02;50.28;102002.22;4993119;28;20121;-78
2022/09/04 11:52:39;;;;;;;3.85;1.13;;;22.80;94.50;;;21.83;51.67;102006.25;4994657;28;20038;-78
2022/09/04 11:55:57;;;;;;;2.75;1.30;;;22.80;94.50;;;21.87;51.33;102004.22;4990928;28;20081;-78
2022/09/04 11:59:22;;;;;;;4.28;1.30;;;22.60;93.90;;;21.82;50.29;102007.25;4993680;28;20057;-78
2022/09/04 12:02:15;;;;;;;5.65;1.20;;;22.60;93.70;;;21.89;50.92;102010.31;4970088;28;20511;-77
2022/09/04 12:05:09;;;;;;;2.55;1.20;;;22.70;95.80;;;21.89;51.91;102008.47;4993422;28;20061;-78
2022/09/04 12:08:21;;;;;;;1.33;0.98;;;22.60;95.50;;;21.81;53.03;102000.16;4994255;28;20071;-78
2022/09/04 12:11:40;;;;;;;4.93;1.10;;;22.40;95.40;;;21.43;52.42;101994.94;4993201;28;20038;-78
2022/09/04 12:14:18;;;;;;;3.33;0.90;;;22.30;94.90;;;21.29;52.25;101993.22;4995872;28;20380;-78
2022/09/04 12:16:56;;;;;;;7.70;1.45;;;22.20;95.00;;;21.56;51.89;102000.25;4995198;28;20084;-78